Terminal Aerodrome Forecast
Issued by NWS

Home | Current Version | Previous Version | Text Only | Print | Product List | Glossary On
Versions: 1 2 3 4 5 6 7 8 9 10 11 12 13 14
568
FTUS43 KDVN 262158 AAA
TAFBRL
TAF AMD
KBRL 262158Z 2622/2718 28012KT P6SM VCSH BKN060
      TEMPO 2622/2623 5SM TSRA BKN050CB
     FM270000 32005KT P6SM SCT070=

USA.gov is the U.S. government's official web portal to all federal, state and local government web resources and services.